Time;durP1;ratioP1;P1;durP2;ratioP2;P2;SDS_P1;SDS_P2;PMS_P1;PMS_P2;Temp;Humidity;BMP_temperature;BMP_pressure;BME280_temperature;BME280_humidity;BME280_pressure;Samples;Min_cycle;Max_cycle;Signal;HPM_P1;HPM_P2
2022/12/28 00:01:06;;;;;;;3.40;1.73;;;5.40;22.20;;;;;;5052291;28;20207;-52
2022/12/28 00:03:34;;;;;;;6.17;2.00;;;5.40;25.90;;;;;;5052276;28;20673;-47
2022/12/28 00:06:01;;;;;;;3.60;1.40;;;5.40;28.20;;;;;;5052005;28;20271;-48
2022/12/28 00:08:28;;;;;;;3.87;1.50;;;5.40;31.80;;;;;;5052272;28;20228;-54
2022/12/28 00:11:00;;;;;;;5.40;1.80;;;5.40;32.00;;;;;;5052138;28;20260;-49
2022/12/28 00:13:27;;;;;;;4.17;1.70;;;5.40;33.60;;;;;;5051962;28;20211;-52
2022/12/28 00:15:53;;;;;;;5.67;1.50;;;5.40;37.40;;;;;;5051943;28;20253;-53
2022/12/28 00:18:20;;;;;;;4.80;1.63;;;5.50;34.60;;;;;;5052011;28;20272;-53
2022/12/28 00:20:57;;;;;;;5.53;1.60;;;5.50;38.00;;;;;;5052172;28;20211;-47
2022/12/28 00:23:23;;;;;;;4.90;1.50;;;5.50;37.50;;;;;;5052088;28;20208;-52
2022/12/28 00:25:50;;;;;;;6.50;1.57;;;5.50;41.80;;;;;;5052153;28;20652;-57
2022/12/28 00:28:17;;;;;;;3.37;1.80;;;5.50;41.70;;;;;;5059876;28;20767;-47
2022/12/28 00:30:44;;;;;;;3.53;1.60;;;5.50;42.30;;;;;;5052117;28;20295;-47
2022/12/28 00:33:11;;;;;;;5.73;1.77;;;5.60;41.90;;;;;;5051974;28;20669;-49
2022/12/28 00:35:38;;;;;;;4.17;1.43;;;5.60;43.30;;;;;;5051679;28;20728;-47
2022/12/28 00:38:06;;;;;;;3.93;1.80;;;5.70;43.60;;;;;;5051592;28;20225;-49
2022/12/28 00:40:32;;;;;;;2.93;1.23;;;5.70;46.20;;;;;;5052238;28;20216;-49
2022/12/28 00:42:59;;;;;;;3.23;1.30;;;5.70;48.00;;;;;;5051903;28;20264;-50
2022/12/28 00:45:26;;;;;;;4.27;1.80;;;5.80;49.10;;;;;;5051872;28;20204;-47
2022/12/28 00:47:53;;;;;;;6.53;1.63;;;5.80;55.20;;;;;;5051539;28;20918;-49
2022/12/28 00:50:19;;;;;;;3.33;1.30;;;5.70;76.30;;;;;;5051700;28;20209;-50
2022/12/28 00:52:46;;;;;;;5.00;1.57;;;5.70;90.20;;;;;;5054640;28;20582;-49
2022/12/28 00:55:14;;;;;;;5.20;1.80;;;5.70;99.50;;;;;;5055455;28;20278;-47
2022/12/28 00:57:40;;;;;;;4.07;1.40;;;5.70;99.90;;;;;;5063861;28;20203;-47
2022/12/28 01:00:08;;;;;;;5.77;2.10;;;5.70;99.90;;;;;;5055669;28;20249;-52
2022/12/28 01:02:35;;;;;;;7.07;1.63;;;5.60;99.90;;;;;;5055792;28;20204;-50
2022/12/28 01:05:02;;;;;;;6.07;1.83;;;5.60;99.90;;;;;;5055549;28;20202;-50
2022/12/28 01:07:28;;;;;;;5.90;1.63;;;5.60;99.90;;;;;;5055418;28;20615;-48
2022/12/28 01:09:55;;;;;;;3.40;1.67;;;5.60;99.90;;;;;;5055631;28;20935;-49
2022/12/28 01:12:23;;;;;;;4.93;1.63;;;5.70;99.90;;;;;;5055562;28;20623;-51
2022/12/28 01:14:50;;;;;;;4.77;1.67;;;5.70;99.90;;;;;;5055439;28;20219;-52
2022/12/28 01:17:17;;;;;;;3.30;1.50;;;5.70;99.90;;;;;;5054812;28;20208;-49
2022/12/28 01:19:43;;;;;;;2.80;1.50;;;5.70;99.90;;;;;;5055079;28;20225;-48
2022/12/28 01:22:10;;;;;;;3.73;1.40;;;5.70;99.90;;;;;;5055010;28;20208;-50
2022/12/28 01:24:37;;;;;;;5.87;1.67;;;5.70;99.90;;;;;;5055456;28;20213;-52
2022/12/28 01:27:03;;;;;;;5.23;1.50;;;5.70;99.90;;;;;;5063224;28;20258;-50
2022/12/28 01:29:32;;;;;;;3.73;1.50;;;5.70;99.90;;;;;;5055156;28;20359;-54
2022/12/28 01:31:59;;;;;;;4.53;1.90;;;5.70;99.90;;;;;;5055042;28;20302;-48
2022/12/28 01:34:25;;;;;;;4.27;1.70;;;5.70;99.90;;;;;;5055054;28;20229;-47
2022/12/28 01:36:52;;;;;;;3.37;1.60;;;5.70;99.90;;;;;;5054709;28;20250;-52
2022/12/28 01:39:19;;;;;;;7.10;2.03;;;5.60;99.90;;;;;;5054835;28;20673;-49
2022/12/28 01:41:46;;;;;;;4.17;2.07;;;5.50;99.90;;;;;;5055196;28;20636;-51
2022/12/28 01:44:40;;;;;;;3.40;2.00;;;5.40;99.90;;;;;;5054769;28;20313;-54
2022/12/28 01:47:12;;;;;;;2.57;1.83;;;5.40;99.90;;;;;;5054551;28;20219;-49
2022/12/28 01:49:44;;;;;;;8.00;2.27;;;5.40;99.90;;;;;;5054571;28;20719;-54
2022/12/28 01:52:14;;;;;;;4.50;1.93;;;5.40;99.90;;;;;;5054741;28;20257;-48
2022/12/28 01:54:45;;;;;;;5.30;2.63;;;5.40;99.90;;;;;;5054755;28;20218;-54
2022/12/28 01:57:12;;;;;;;5.57;2.20;;;5.40;99.90;;;;;;5062834;28;20212;-52
2022/12/28 01:59:45;;;;;;;4.53;1.77;;;5.40;99.90;;;;;;5054324;28;20777;-52
2022/12/28 02:02:13;;;;;;;6.97;1.93;;;5.50;99.90;;;;;;5054786;28;20632;-50
2022/12/28 02:04:40;;;;;;;7.87;1.80;;;5.50;99.90;;;;;;5053534;28;20202;-48
2022/12/28 02:07:07;;;;;;;5.43;1.90;;;5.60;99.90;;;;;;5054225;28;20679;-54
2022/12/28 02:09:38;;;;;;;2.63;1.27;;;5.60;99.90;;;;;;5054403;28;20227;-48
2022/12/28 02:12:06;;;;;;;2.60;1.77;;;5.70;99.90;;;;;;5054452;28;20242;-51
2022/12/28 02:14:33;;;;;;;9.33;1.93;;;5.70;99.90;;;;;;5054351;28;20648;-53
2022/12/28 02:17:01;;;;;;;2.27;1.77;;;5.80;99.90;;;;;;5054416;28;20258;-50
2022/12/28 02:19:36;;;;;;;5.23;1.70;;;5.80;99.90;;;;;;5054319;28;20649;-48
2022/12/28 02:22:21;;;;;;;4.87;1.80;;;5.90;99.90;;;;;;5054215;28;20234;-50
2022/12/28 02:25:19;;;;;;;3.50;1.53;;;5.90;99.90;;;;;;5054254;28;20194;-52
2022/12/28 02:27:59;;;;;;;6.60;2.17;;;5.90;99.90;;;;;;5062144;28;20254;-52
2022/12/28 02:30:27;;;;;;;2.90;1.73;;;5.90;99.90;;;;;;5034084;28;20207;-54
2022/12/28 02:33:00;;;;;;;3.33;1.50;;;6.00;99.90;;;;;;5033991;28;20213;-49
2022/12/28 02:35:33;;;;;;;7.10;1.93;;;6.00;99.90;;;;;;5034067;28;20236;-50
2022/12/28 02:38:06;;;;;;;3.10;1.43;;;6.00;99.90;;;;;;5033643;28;20256;-48
2022/12/28 02:40:39;;;;;;;5.97;2.17;;;6.10;99.90;;;;;;5034178;28;20297;-53
2022/12/28 02:43:06;;;;;;;2.03;1.40;;;6.10;99.90;;;;;;5033974;28;20662;-51
2022/12/28 02:51:44;;;;;;;2.90;1.47;;;6.20;99.90;;;;;;5033960;28;20716;-52
2022/12/28 02:57:47;;;;;;;3.93;1.53;;;6.30;99.90;;;;;;5054896;28;20208;-50
2022/12/28 03:00:17;;;;;;;6.23;1.83;;;6.20;99.90;;;;;;5053860;28;20267;-51
2022/12/28 03:02:59;;;;;;;1.87;1.43;;;6.20;99.90;;;;;;5053723;28;20214;-55
2022/12/28 03:08:22;;;;;;;5.73;1.60;;;6.20;99.90;;;;;;5053282;28;20303;-51
2022/12/28 03:10:55;;;;;;;4.77;1.70;;;6.30;99.90;;;;;;5053601;28;20212;-50
2022/12/28 03:13:45;;;;;;;4.03;1.60;;;6.30;99.90;;;;;;5053319;28;20218;-48
2022/12/28 03:16:18;;;;;;;4.40;1.67;;;6.30;99.90;;;;;;5053005;28;21082;-53
2022/12/28 03:32:43;;;;;;;3.33;1.60;;;6.10;99.90;;;;;;5052998;28;20228;-49
2022/12/28 03:35:11;;;;;;;3.17;1.93;;;6.10;99.90;;;;;;5053157;28;20220;-48
2022/12/28 03:37:43;;;;;;;3.07;2.10;;;6.10;99.90;;;;;;5052411;28;20260;-50
2022/12/28 03:40:18;;;;;;;2.97;1.77;;;6.10;99.90;;;;;;5052713;28;20252;-47
2022/12/28 03:45:40;;;;;;;5.47;1.77;;;6.00;99.90;;;;;;5052999;28;20268;-51
2022/12/28 03:48:07;;;;;;;2.97;1.60;;;6.00;99.90;;;;;;5052509;28;20263;-49
2022/12/28 03:50:38;;;;;;;4.33;1.80;;;6.00;99.90;;;;;;5052724;28;20212;-52
2022/12/28 03:53:05;;;;;;;5.13;2.20;;;6.00;99.90;;;;;;5052711;28;20216;-50
2022/12/28 03:55:31;;;;;;;3.97;2.13;;;6.00;99.90;;;;;;5052503;28;20765;-52
2022/12/28 03:57:58;;;;;;;4.60;1.63;;;6.00;99.90;;;;;;5061038;28;20920;-47
2022/12/28 04:00:25;;;;;;;7.90;1.93;;;6.00;99.90;;;;;;5072295;28;20212;-53
2022/12/28 04:02:51;;;;;;;2.97;2.00;;;6.10;99.90;;;;;;5072651;28;20284;-51
2022/12/28 04:05:20;;;;;;;4.10;1.83;;;6.10;99.90;;;;;;5072430;28;20204;-50
2022/12/28 04:07:48;;;;;;;3.87;2.10;;;6.10;99.90;;;;;;5072132;28;20264;-54
2022/12/28 04:10:15;;;;;;;5.30;2.10;;;6.20;99.90;;;;;;5072376;28;20235;-52
2022/12/28 04:12:41;;;;;;;7.33;2.10;;;6.20;99.90;;;;;;5072199;28;20202;-47
2022/12/28 04:15:08;;;;;;;5.70;2.13;;;6.20;99.90;;;;;;5072037;28;20216;-50
2022/12/28 04:17:35;;;;;;;4.43;2.03;;;6.20;99.90;;;;;;5071779;28;20212;-52
2022/12/28 04:20:02;;;;;;;3.53;1.83;;;6.30;99.90;;;;;;5072250;28;20229;-52
2022/12/28 04:22:28;;;;;;;4.20;1.87;;;6.30;99.90;;;;;;5072101;28;20303;-49
2022/12/28 04:24:56;;;;;;;3.50;1.63;;;6.40;99.90;;;;;;5072521;28;20214;-48
2022/12/28 04:27:23;;;;;;;5.03;1.87;;;6.40;99.90;;;;;;5063229;28;20239;-48
2022/12/28 04:29:50;;;;;;;5.30;1.67;;;6.40;99.90;;;;;;5055265;28;20309;-52
2022/12/28 04:32:17;;;;;;;4.73;1.90;;;6.40;99.90;;;;;;5051713;28;20746;-48
2022/12/28 04:34:43;;;;;;;2.20;1.50;;;6.50;99.90;;;;;;5051984;28;20676;-50
2022/12/28 04:37:10;;;;;;;3.03;1.37;;;6.50;99.90;;;;;;5051687;28;20229;-53
2022/12/28 04:39:37;;;;;;;3.57;1.70;;;6.50;99.90;;;;;;5051739;28;20233;-51
2022/12/28 04:42:05;;;;;;;3.90;1.40;;;6.50;99.90;;;;;;5051864;28;20217;-50
2022/12/28 04:44:32;;;;;;;3.20;1.70;;;6.50;99.90;;;;;;5051858;28;20267;-50
2022/12/28 04:46:58;;;;;;;3.77;1.83;;;6.50;99.90;;;;;;5051650;28;20202;-47
2022/12/28 04:49:25;;;;;;;2.50;1.73;;;6.40;99.90;;;;;;5051622;28;20227;-47
2022/12/28 04:51:52;;;;;;;5.00;1.90;;;6.40;99.90;;;;;;5051786;28;20339;-47
2022/12/28 04:54:18;;;;;;;3.47;1.93;;;6.40;99.90;;;;;;5052351;28;20212;-49
2022/12/28 04:56:45;;;;;;;3.80;1.83;;;6.40;99.90;;;;;;5051165;28;20228;-51
2022/12/28 04:59:13;;;;;;;4.50;1.90;;;6.30;99.90;;;;;;5059970;28;20226;-48
2022/12/28 05:01:40;;;;;;;3.73;1.90;;;6.30;99.90;;;;;;5051606;28;20209;-47
2022/12/28 05:04:06;;;;;;;3.47;1.77;;;6.30;99.90;;;;;;5051538;28;20209;-47
2022/12/28 05:06:33;;;;;;;3.17;1.50;;;6.30;99.90;;;;;;5050992;28;20212;-52
2022/12/28 05:09:00;;;;;;;6.50;2.10;;;6.30;99.90;;;;;;5051431;28;20606;-48
2022/12/28 05:11:28;;;;;;;3.07;1.77;;;6.30;99.90;;;;;;5051196;28;20258;-48
2022/12/28 05:13:55;;;;;;;2.57;1.90;;;6.30;99.90;;;;;;5051527;28;20205;-51
2022/12/28 05:16:26;;;;;;;3.77;2.07;;;6.30;99.90;;;;;;5051054;28;20232;-47
2022/12/28 05:18:53;;;;;;;2.63;1.93;;;6.30;99.90;;;;;;5051395;28;20279;-52
2022/12/28 05:21:21;;;;;;;3.07;2.10;;;6.30;99.90;;;;;;5051403;28;20260;-51
2022/12/28 05:23:49;;;;;;;3.07;2.00;;;6.30;99.90;;;;;;5051190;28;20590;-50
2022/12/28 05:26:18;;;;;;;5.17;2.47;;;6.30;99.90;;;;;;5051254;28;20256;-57
2022/12/28 05:28:45;;;;;;;3.20;2.30;;;6.30;99.90;;;;;;5059560;28;20276;-48
2022/12/28 05:31:13;;;;;;;6.33;2.40;;;6.30;99.90;;;;;;5051474;28;20654;-53
2022/12/28 05:33:42;;;;;;;3.17;1.80;;;6.30;99.90;;;;;;5051309;28;20641;-55
2022/12/28 05:36:11;;;;;;;3.23;2.03;;;6.40;99.90;;;;;;5050948;28;20710;-50
2022/12/28 05:38:38;;;;;;;4.97;2.10;;;6.40;99.90;;;;;;5053392;28;20245;-50
2022/12/28 05:41:06;;;;;;;2.97;2.17;;;6.40;99.90;;;;;;5055231;28;20270;-52
2022/12/28 05:43:33;;;;;;;7.50;3.13;;;6.40;99.90;;;;;;5054856;28;20205;-50
2022/12/28 05:46:02;;;;;;;5.17;2.17;;;6.40;99.90;;;;;;5054591;28;20263;-52
2022/12/28 05:48:31;;;;;;;3.13;2.20;;;6.40;99.90;;;;;;5054752;28;20663;-50
2022/12/28 05:51:00;;;;;;;6.53;2.50;;;6.40;99.90;;;;;;5054713;28;20210;-47
2022/12/28 05:53:28;;;;;;;3.43;2.40;;;6.40;99.90;;;;;;5054821;28;20214;-52
2022/12/28 05:56:00;;;;;;;6.63;2.00;;;6.40;99.90;;;;;;5054600;28;20232;-51
2022/12/28 05:58:27;;;;;;;7.50;2.60;;;6.40;99.90;;;;;;5062699;28;20664;-52
2022/12/28 06:00:54;;;;;;;7.23;3.10;;;6.40;99.90;;;;;;5054588;28;20259;-50
2022/12/28 06:03:20;;;;;;;6.80;2.67;;;6.40;99.90;;;;;;5054599;28;20205;-54
2022/12/28 06:05:47;;;;;;;6.33;2.80;;;6.40;99.90;;;;;;5054354;28;20608;-52
2022/12/28 06:08:15;;;;;;;5.90;2.60;;;6.40;99.90;;;;;;5054379;28;20229;-48
2022/12/28 06:10:42;;;;;;;4.97;2.80;;;6.40;99.90;;;;;;5054708;28;20232;-52
2022/12/28 06:13:08;;;;;;;5.60;2.57;;;6.40;99.90;;;;;;5054432;28;20260;-53
2022/12/28 06:15:36;;;;;;;5.70;2.40;;;6.40;99.90;;;;;;5054131;28;20212;-50
2022/12/28 06:18:02;;;;;;;3.57;2.57;;;6.40;99.90;;;;;;5053929;28;20271;-49
2022/12/28 06:20:29;;;;;;;6.90;2.67;;;6.40;99.90;;;;;;5054372;28;20206;-51
2022/12/28 06:22:56;;;;;;;4.87;2.60;;;6.50;99.90;;;;;;5054605;28;20206;-50
2022/12/28 06:25:24;;;;;;;5.23;2.80;;;6.40;99.90;;;;;;5054403;28;20240;-48
2022/12/28 06:27:51;;;;;;;5.70;3.37;;;6.40;99.90;;;;;;5061926;28;20692;-52
2022/12/28 06:30:17;;;;;;;6.97;2.77;;;6.40;99.90;;;;;;5034148;28;20566;-53
2022/12/28 06:32:44;;;;;;;5.70;3.10;;;6.40;99.90;;;;;;5034192;28;20251;-50
2022/12/28 06:35:11;;;;;;;4.80;2.90;;;6.40;99.90;;;;;;5034218;28;20210;-49
2022/12/28 06:37:37;;;;;;;5.67;2.57;;;6.50;99.90;;;;;;5033868;28;20222;-52
2022/12/28 06:40:05;;;;;;;4.87;2.73;;;6.50;99.90;;;;;;5033876;28;20234;-49
2022/12/28 06:42:33;;;;;;;5.00;2.93;;;6.50;99.90;;;;;;5033824;28;20685;-52
2022/12/28 06:44:59;;;;;;;7.57;3.50;;;6.40;99.90;;;;;;5033699;28;20637;-55
2022/12/28 06:47:26;;;;;;;5.97;3.17;;;6.50;99.90;;;;;;5033501;28;20584;-50
2022/12/28 06:49:53;;;;;;;7.63;3.10;;;6.50;99.90;;;;;;5033113;28;20660;-52
2022/12/28 06:52:20;;;;;;;5.80;3.40;;;6.50;99.90;;;;;;5033554;28;20249;-52
2022/12/28 06:54:46;;;;;;;6.00;3.33;;;6.50;99.90;;;;;;5033998;28;20244;-51
2022/12/28 06:57:13;;;;;;;6.37;3.50;;;6.50;99.90;;;;;;5052582;28;20283;-54
2022/12/28 06:59:41;;;;;;;5.30;3.13;;;6.50;99.90;;;;;;5053297;28;20267;-54
2022/12/28 07:02:09;;;;;;;3.37;2.50;;;6.50;99.90;;;;;;5053462;28;20214;-47
2022/12/28 07:04:35;;;;;;;7.57;3.03;;;6.50;99.90;;;;;;5053614;28;20214;-50
2022/12/28 07:07:02;;;;;;;7.30;2.70;;;6.50;99.90;;;;;;5053097;28;20208;-53
2022/12/28 07:09:29;;;;;;;9.40;3.10;;;6.50;99.90;;;;;;5052606;28;20237;-47
2022/12/28 07:11:56;;;;;;;6.37;3.00;;;6.60;99.90;;;;;;5053342;28;20275;-49
2022/12/28 07:14:22;;;;;;;5.03;2.80;;;6.60;99.90;;;;;;5053347;28;20206;-54
2022/12/28 07:16:50;;;;;;;4.87;2.50;;;6.60;99.90;;;;;;5053186;28;20222;-47
2022/12/28 07:19:17;;;;;;;5.97;3.40;;;6.60;99.90;;;;;;5052953;28;20727;-52
2022/12/28 07:21:44;;;;;;;7.00;3.30;;;6.60;99.90;;;;;;5053312;28;20209;-47
2022/12/28 07:24:10;;;;;;;5.83;3.40;;;6.70;99.90;;;;;;5053246;28;20252;-50
2022/12/28 07:26:38;;;;;;;9.80;3.20;;;6.70;99.90;;;;;;5058843;28;20197;-52
2022/12/28 07:29:06;;;;;;;3.00;2.17;;;6.80;99.90;;;;;;5064314;28;20224;-53
2022/12/28 07:31:35;;;;;;;4.90;3.00;;;6.80;99.90;;;;;;5072900;28;20205;-51
2022/12/28 07:34:03;;;;;;;6.60;3.03;;;6.90;99.90;;;;;;5073036;28;20296;-50
2022/12/28 07:36:31;;;;;;;4.73;2.77;;;6.90;99.90;;;;;;5072440;28;20251;-47
2022/12/28 07:38:58;;;;;;;12.13;3.87;;;6.90;99.90;;;;;;5072577;28;20232;-48
2022/12/28 07:41:27;;;;;;;7.17;3.37;;;7.00;99.90;;;;;;5072501;28;20205;-48
2022/12/28 07:43:54;;;;;;;7.77;3.50;;;7.00;99.90;;;;;;5072865;28;20292;-48
2022/12/28 07:46:23;;;;;;;7.10;3.90;;;7.10;99.90;;;;;;5072268;28;20250;-52
2022/12/28 07:48:51;;;;;;;9.97;3.43;;;7.10;99.90;;;;;;5072399;28;20228;-52
2022/12/28 07:51:22;;;;;;;10.80;4.10;;;7.10;99.90;;;;;;5072419;28;20336;-55
2022/12/28 07:53:51;;;;;;;7.10;4.47;;;7.10;99.90;;;;;;5072527;28;20209;-49
2022/12/28 07:56:18;;;;;;;9.90;4.00;;;7.10;99.90;;;;;;5068702;28;20202;-55
2022/12/28 07:58:48;;;;;;;9.57;4.13;;;7.10;99.90;;;;;;5052283;28;20307;-49
2022/12/28 08:01:16;;;;;;;7.33;3.93;;;7.10;99.90;;;;;;5052316;28;20210;-50
2022/12/28 08:03:43;;;;;;;9.37;4.07;;;7.10;99.90;;;;;;5052565;28;20870;-52
2022/12/28 08:06:12;;;;;;;9.97;4.10;;;7.10;99.90;;;;;;5051869;28;20647;-54
2022/12/28 08:08:42;;;;;;;7.90;3.67;;;7.20;99.90;;;;;;5051927;28;20222;-49
2022/12/28 08:11:11;;;;;;;7.83;3.97;;;7.20;99.90;;;;;;5052506;28;20283;-50
2022/12/28 08:13:39;;;;;;;8.83;4.17;;;7.20;99.90;;;;;;5051952;28;20213;-47
2022/12/28 08:16:06;;;;;;;6.23;3.87;;;7.20;99.90;;;;;;5051967;28;20248;-51
2022/12/28 08:18:33;;;;;;;8.73;3.50;;;7.20;99.90;;;;;;5052046;28;20283;-48
2022/12/28 08:21:02;;;;;;;7.70;4.30;;;7.30;99.90;;;;;;5052276;28;20210;-49
2022/12/28 08:23:29;;;;;;;5.43;4.27;;;7.30;99.90;;;;;;5052644;28;20202;-47
2022/12/28 08:25:57;;;;;;;10.57;3.83;;;7.30;99.90;;;;;;5052776;28;20205;-47
2022/12/28 08:28:24;;;;;;;7.27;4.03;;;7.30;99.90;;;;;;5063444;28;20224;-48
2022/12/28 08:30:50;;;;;;;6.00;4.10;;;7.30;99.90;;;;;;5071858;28;20251;-48
2022/12/28 08:33:17;;;;;;;9.97;4.50;;;7.40;99.90;;;;;;5071833;28;20209;-50
2022/12/28 08:35:43;;;;;;;6.20;3.50;;;7.40;99.90;;;;;;5072160;28;20258;-49
2022/12/28 08:38:10;;;;;;;7.77;3.97;;;7.40;99.90;;;;;;5071142;28;20290;-52
2022/12/28 08:40:37;;;;;;;8.30;4.20;;;7.40;99.90;;;;;;5071896;28;20266;-49
2022/12/28 08:43:05;;;;;;;8.73;4.10;;;7.50;99.90;;;;;;5071912;28;20258;-52
2022/12/28 08:45:31;;;;;;;5.70;3.33;;;7.50;99.90;;;;;;5071655;28;20209;-52
2022/12/28 08:47:58;;;;;;;8.67;3.70;;;7.50;99.90;;;;;;5071385;28;20241;-47
2022/12/28 08:50:25;;;;;;;8.47;3.47;;;7.60;99.90;;;;;;5071490;28;20209;-53
2022/12/28 08:52:51;;;;;;;6.37;3.07;;;7.60;99.90;;;;;;5071633;28;20667;-51
2022/12/28 08:55:18;;;;;;;7.63;3.80;;;7.70;99.90;;;;;;5071481;28;20668;-51
2022/12/28 08:57:45;;;;;;;5.57;3.17;;;7.70;99.90;;;;;;5062794;28;20761;-51
2022/12/28 09:00:14;;;;;;;6.40;2.53;;;7.60;99.90;;;;;;5052299;28;20248;-52
2022/12/28 09:02:41;;;;;;;5.50;3.13;;;7.70;99.90;;;;;;5051530;28;20260;-51
2022/12/28 09:05:08;;;;;;;6.00;2.57;;;7.70;99.90;;;;;;5051638;28;20271;-51
2022/12/28 09:07:35;;;;;;;3.73;2.37;;;7.80;99.90;;;;;;5051533;28;20206;-52
2022/12/28 09:10:01;;;;;;;6.93;2.63;;;7.80;99.90;;;;;;5051508;28;20275;-51
2022/12/28 09:12:28;;;;;;;4.77;2.90;;;7.90;99.90;;;;;;5052178;28;20339;-52
2022/12/28 09:14:55;;;;;;;4.03;2.20;;;7.90;99.90;;;;;;5055304;28;20209;-56
2022/12/28 09:17:23;;;;;;;5.70;2.47;;;7.90;99.90;;;;;;5055095;28;20288;-50
2022/12/28 09:19:50;;;;;;;4.83;2.57;;;8.00;99.90;;;;;;5055348;28;20252;-50
2022/12/28 09:22:16;;;;;;;5.77;2.47;;;8.00;99.90;;;;;;5055628;28;20211;-48
2022/12/28 09:24:43;;;;;;;4.60;2.20;;;8.00;99.90;;;;;;5055302;28;20205;-48
2022/12/28 09:27:09;;;;;;;4.80;2.17;;;8.00;99.90;;;;;;5054873;28;20252;-52
2022/12/28 09:29:36;;;;;;;4.30;2.33;;;8.10;99.90;;;;;;5069354;28;20858;-49
2022/12/28 09:32:03;;;;;;;3.83;2.10;;;8.10;99.90;;;;;;5075298;28;20637;-49
2022/12/28 09:34:31;;;;;;;2.63;1.67;;;8.10;99.90;;;;;;5075332;28;20210;-53
2022/12/28 09:36:58;;;;;;;5.07;1.87;;;8.20;99.90;;;;;;5074803;28;20778;-54
2022/12/28 09:39:25;;;;;;;6.60;1.50;;;8.20;99.90;;;;;;5074661;28;20238;-49
2022/12/28 09:41:55;;;;;;;3.20;1.60;;;8.20;99.90;;;;;;5074992;28;20217;-48
2022/12/28 09:44:36;;;;;;;2.53;1.67;;;8.20;99.90;;;;;;5074324;28;20239;-53
2022/12/28 09:47:11;;;;;;;2.10;1.57;;;8.30;99.90;;;;;;5074766;28;20605;-53
2022/12/28 09:49:44;;;;;;;3.23;1.47;;;8.30;99.90;;;;;;5074605;28;20224;-55
2022/12/28 09:52:25;;;;;;;4.27;1.50;;;8.30;99.90;;;;;;5074805;28;20206;-52
2022/12/28 09:54:51;;;;;;;3.10;1.40;;;8.40;99.90;;;;;;5074569;28;20209;-52
2022/12/28 09:57:20;;;;;;;2.37;1.63;;;8.40;99.90;;;;;;5065975;28;20842;-51
2022/12/28 09:59:47;;;;;;;3.07;1.60;;;8.40;99.90;;;;;;5059056;28;20223;-55
2022/12/28 10:02:19;;;;;;;3.93;1.40;;;8.50;99.90;;;;;;5054712;28;20361;-54
2022/12/28 10:04:49;;;;;;;3.57;1.43;;;8.50;99.90;;;;;;5054510;28;20220;-52
2022/12/28 10:07:16;;;;;;;2.30;1.40;;;8.60;99.90;;;;;;5054289;28;20719;-56
2022/12/28 10:09:43;;;;;;;1.60;1.20;;;8.70;99.90;;;;;;5054331;28;20232;-48
2022/12/28 10:12:15;;;;;;;1.70;1.23;;;8.70;99.90;;;;;;5054657;28;20678;-49
2022/12/28 10:14:44;;;;;;;1.67;1.43;;;8.70;99.90;;;;;;5054398;28;20281;-52
2022/12/28 10:17:13;;;;;;;1.03;0.90;;;8.70;99.90;;;;;;5054230;28;20221;-53
2022/12/28 10:19:40;;;;;;;3.87;1.67;;;8.70;99.90;;;;;;5054076;28;20637;-49
2022/12/28 10:22:12;;;;;;;2.30;1.00;;;8.80;99.90;;;;;;5054323;28;20216;-51
2022/12/28 10:24:40;;;;;;;3.20;1.20;;;8.70;99.90;;;;;;5053214;28;20211;-51
2022/12/28 10:27:11;;;;;;;3.00;1.13;;;8.80;99.90;;;;;;5053791;28;20266;-55
2022/12/28 10:29:39;;;;;;;1.97;1.23;;;8.80;99.90;;;;;;5068379;28;20293;-54
2022/12/28 10:32:08;;;;;;;1.27;1.10;;;8.80;99.90;;;;;;5073998;28;20248;-49
2022/12/28 10:34:36;;;;;;;1.87;1.00;;;8.80;99.90;;;;;;5074374;28;20294;-49
2022/12/28 10:37:14;;;;;;;1.80;1.13;;;8.90;99.90;;;;;;5074052;28;20212;-52
2022/12/28 10:39:49;;;;;;;2.77;1.47;;;8.80;99.90;;;;;;5072782;28;20499;-49
2022/12/28 10:42:21;;;;;;;3.72;1.40;;;8.90;99.90;;;;;;5072730;28;20461;-56
2022/12/28 10:44:49;;;;;;;2.53;1.40;;;9.00;99.90;;;;;;5072786;28;20494;-55
2022/12/28 10:47:25;;;;;;;4.10;1.27;;;9.00;99.90;;;;;;5073510;28;20201;-53
2022/12/28 10:49:52;;;;;;;3.27;1.33;;;9.00;99.90;;;;;;5073839;28;20232;-63
2022/12/28 10:52:21;;;;;;;1.20;1.10;;;9.10;99.90;;;;;;5051288;28;20204;-60
2022/12/28 10:54:48;;;;;;;2.13;1.10;;;9.10;99.90;;;;;;5064569;28;20211;-59
2022/12/28 10:57:17;;;;;;;1.23;0.80;;;9.10;99.90;;;;;;5063862;28;20663;-57
2022/12/28 10:59:45;;;;;;;1.10;1.00;;;9.00;99.90;;;;;;5064555;28;20274;-58
2022/12/28 11:02:27;;;;;;;1.60;1.10;;;9.00;99.90;;;;;;5072799;28;20203;-60
2022/12/28 11:04:59;;;;;;;1.43;1.17;;;9.00;99.90;;;;;;5073449;28;20295;-58
2022/12/28 11:07:33;;;;;;;1.40;1.00;;;9.00;99.90;;;;;;5072775;28;20254;-58
2022/12/28 11:10:26;;;;;;;1.10;1.00;;;9.10;99.90;;;;;;5072701;28;20228;-61
2022/12/28 11:12:55;;;;;;;1.70;1.13;;;9.10;99.90;;;;;;5072011;28;20208;-59
2022/12/28 11:15:24;;;;;;;1.80;1.00;;;9.10;99.90;;;;;;5072597;28;20208;-57
2022/12/28 11:17:55;;;;;;;1.37;1.10;;;9.20;99.90;;;;;;5072204;28;20708;-60
2022/12/28 11:20:25;;;;;;;2.17;1.00;;;9.20;99.90;;;;;;5072724;28;20749;-58
2022/12/28 11:22:54;;;;;;;3.33;1.07;;;9.20;99.90;;;;;;5073029;28;20222;-61
2022/12/28 11:25:31;;;;;;;1.30;1.20;;;9.20;99.90;;;;;;5072352;28;20216;-63
2022/12/28 11:27:58;;;;;;;2.40;1.00;;;9.20;99.90;;;;;;5063839;28;20570;-53
2022/12/28 11:30:25;;;;;;;2.07;1.30;;;9.20;99.90;;;;;;5052178;28;20205;-57
2022/12/28 11:32:55;;;;;;;3.30;1.23;;;9.20;99.90;;;;;;5052244;28;20293;-60
2022/12/28 11:35:24;;;;;;;3.13;0.90;;;9.20;99.90;;;;;;5052266;28;20281;-59
2022/12/28 11:37:55;;;;;;;1.27;0.87;;;9.20;99.90;;;;;;5051692;28;20240;-57
2022/12/28 11:40:49;;;;;;;2.60;1.10;;;9.20;99.90;;;;;;5052441;28;20219;-58
2022/12/28 11:43:47;;;;;;;1.17;1.07;;;9.20;99.90;;;;;;5051924;28;20209;-56
2022/12/28 11:46:42;;;;;;;1.37;0.80;;;9.10;99.90;;;;;;5051475;28;20222;-56
2022/12/28 11:49:38;;;;;;;2.27;1.30;;;9.10;99.90;;;;;;5052170;28;20222;-54
2022/12/28 11:52:34;;;;;;;3.00;1.00;;;9.10;99.90;;;;;;4990201;28;20213;-59
2022/12/28 11:55:23;;;;;;;1.83;1.00;;;9.00;99.90;;;;;;5049541;28;20289;-56
2022/12/28 11:57:49;;;;;;;3.07;1.20;;;8.90;99.90;;;;;;5059742;28;20232;-57
2022/12/28 12:00:47;;;;;;;4.93;1.70;;;8.90;99.90;;;;;;5051949;28;20306;-59
2022/12/28 12:03:14;;;;;;;2.17;1.53;;;8.90;99.90;;;;;;5052033;28;20295;-54
2022/12/28 12:05:58;;;;;;;4.33;1.33;;;8.80;99.90;;;;;;5051683;28;20205;-54
2022/12/28 12:08:41;;;;;;;1.27;1.10;;;8.80;99.90;;;;;;5052223;28;20224;-54
2022/12/28 12:11:28;;;;;;;;;;;8.70;99.90;;;;;;5052581;28;20045;-52
2022/12/28 12:13:56;;;;;;;;;;;8.70;99.90;;;;;;5052789;28;19925;-49
2022/12/28 12:16:26;;;;;;;;;;;8.60;99.90;;;;;;5052069;28;19924;-51
2022/12/28 12:18:55;;;;;;;2.90;1.20;;;8.60;99.90;;;;;;5051880;28;20078;-50
2022/12/28 12:21:30;;;;;;;2.07;1.30;;;8.50;99.90;;;;;;5051365;28;20208;-51
2022/12/28 12:24:04;;;;;;;2.83;1.50;;;8.40;99.90;;;;;;5051925;28;20211;-50
2022/12/28 12:26:36;;;;;;;1.53;1.20;;;8.40;99.90;;;;;;5051187;28;20203;-51
2022/12/28 12:29:07;;;;;;;3.43;1.40;;;8.40;99.90;;;;;;5051494;28;20246;-55
2022/12/28 12:31:39;;;;;;;3.63;1.73;;;8.40;99.90;;;;;;5051369;28;20211;-52
2022/12/28 12:34:16;;;;;;;2.20;1.57;;;8.40;99.90;;;;;;5051736;28;20209;-55
2022/12/28 12:37:24;;;;;;;1.60;1.23;;;8.40;99.90;;;;;;5051331;28;20202;-58
2022/12/28 12:40:20;;;;;;;3.83;1.77;;;8.50;99.90;;;;;;5051566;28;20326;-53
2022/12/28 12:43:03;;;;;;;2.30;1.60;;;8.50;99.90;;;;;;5050433;28;20204;-50
2022/12/28 12:45:36;;;;;;;2.00;1.20;;;8.50;99.90;;;;;;5053133;28;20216;-48
2022/12/28 12:48:34;;;;;;;2.70;1.50;;;8.50;99.90;;;;;;5050698;28;20213;-51
2022/12/28 12:51:18;;;;;;;2.67;1.30;;;8.60;99.90;;;;;;5051590;28;20219;-52
2022/12/28 12:53:58;;;;;;;2.93;1.80;;;8.60;99.90;;;;;;5051543;28;20215;-51
2022/12/28 12:56:35;;;;;;;4.80;1.90;;;8.60;99.90;;;;;;5055708;28;20203;-53
2022/12/28 12:59:23;;;;;;;2.10;1.20;;;8.60;99.90;;;;;;5063080;28;20284;-49
2022/12/28 13:01:57;;;;;;;5.00;1.30;;;8.60;99.90;;;;;;5071144;28;20209;-48
2022/12/28 13:04:27;;;;;;;4.13;1.40;;;8.60;99.90;;;;;;5071717;28;20278;-48
2022/12/28 13:06:58;;;;;;;3.00;1.73;;;8.60;99.90;;;;;;5071425;28;20205;-48
2022/12/28 13:09:27;;;;;;;2.77;1.50;;;8.60;99.90;;;;;;5072243;28;20653;-51
2022/12/28 13:11:54;;;;;;;3.37;1.20;;;8.60;99.90;;;;;;5072208;28;20211;-48
2022/12/28 13:14:24;;;;;;;3.80;1.20;;;8.60;99.90;;;;;;5071933;28;20257;-55
2022/12/28 13:16:53;;;;;;;4.87;1.37;;;8.60;99.90;;;;;;5071769;28;20741;-53
2022/12/28 13:19:23;;;;;;;1.83;1.27;;;8.60;99.90;;;;;;5071787;28;20228;-51
2022/12/28 13:21:50;;;;;;;1.63;1.10;;;8.50;99.90;;;;;;5071572;28;20297;-54
2022/12/28 13:24:23;;;;;;;5.00;1.33;;;8.50;99.90;;;;;;5071457;28;20226;-53
2022/12/28 13:26:51;;;;;;;2.33;1.30;;;8.50;99.90;;;;;;5063012;28;20199;-51
2022/12/28 13:29:20;;;;;;;2.43;1.00;;;8.50;99.90;;;;;;5051071;28;20215;-52
2022/12/28 13:31:49;;;;;;;2.60;1.27;;;8.50;99.90;;;;;;5050850;28;20751;-53
2022/12/28 13:34:19;;;;;;;1.87;1.20;;;8.50;99.90;;;;;;5051130;28;20209;-49
2022/12/28 13:36:52;;;;;;;3.50;1.40;;;8.50;99.90;;;;;;5050783;28;20640;-52
2022/12/28 13:39:20;;;;;;;4.57;1.20;;;8.40;99.90;;;;;;5050691;28;20230;-52
2022/12/28 13:41:52;;;;;;;4.17;1.23;;;8.40;99.90;;;;;;5051160;28;20205;-56